sensor_id;sensor_type;location;lat;lon;timestamp;P1;durP1;ratioP1;P2;durP2;ratioP2
4359;SDS011;2193;47.980;7.660;2022-07-29T00:00:44;11.43;;;8.17;;
4359;SDS011;2193;47.980;7.660;2022-07-29T00:03:10;9.37;;;7.60;;
4359;SDS011;2193;47.980;7.660;2022-07-29T00:05:35;14.73;;;7.67;;
4359;SDS011;2193;47.980;7.660;2022-07-29T00:08:00;10.63;;;8.57;;
4359;SDS011;2193;47.980;7.660;2022-07-29T00:10:25;11.30;;;7.40;;
4359;SDS011;2193;47.980;7.660;2022-07-29T00:12:51;11.17;;;7.73;;
4359;SDS011;2193;47.980;7.660;2022-07-29T00:15:16;10.20;;;7.60;;
4359;SDS011;2193;47.980;7.660;2022-07-29T00:17:41;8.20;;;7.40;;
4359;SDS011;2193;47.980;7.660;2022-07-29T00:20:06;7.40;;;6.63;;
4359;SDS011;2193;47.980;7.660;2022-07-29T00:22:32;13.03;;;7.00;;
4359;SDS011;2193;47.980;7.660;2022-07-29T00:24:57;11.47;;;7.77;;
4359;SDS011;2193;47.980;7.660;2022-07-29T00:27:22;8.10;;;7.30;;
4359;SDS011;2193;47.980;7.660;2022-07-29T00:29:48;13.67;;;7.10;;
4359;SDS011;2193;47.980;7.660;2022-07-29T00:32:13;10.03;;;7.80;;
4359;SDS011;2193;47.980;7.660;2022-07-29T00:34:38;8.30;;;7.50;;
4359;SDS011;2193;47.980;7.660;2022-07-29T00:37:22;9.60;;;7.73;;
4359;SDS011;2193;47.980;7.660;2022-07-29T00:39:49;9.37;;;7.40;;
4359;SDS011;2193;47.980;7.660;2022-07-29T00:42:14;9.47;;;7.03;;
4359;SDS011;2193;47.980;7.660;2022-07-29T00:44:40;9.60;;;7.97;;
4359;SDS011;2193;47.980;7.660;2022-07-29T00:47:05;10.17;;;7.13;;
4359;SDS011;2193;47.980;7.660;2022-07-29T00:49:31;10.07;;;7.90;;
4359;SDS011;2193;47.980;7.660;2022-07-29T00:51:56;10.50;;;7.10;;
4359;SDS011;2193;47.980;7.660;2022-07-29T00:54:22;8.83;;;7.27;;
4359;SDS011;2193;47.980;7.660;2022-07-29T00:56:47;10.90;;;7.40;;
4359;SDS011;2193;47.980;7.660;2022-07-29T00:59:13;12.00;;;7.60;;
4359;SDS011;2193;47.980;7.660;2022-07-29T01:01:38;8.50;;;7.13;;
4359;SDS011;2193;47.980;7.660;2022-07-29T01:04:04;13.93;;;7.43;;
4359;SDS011;2193;47.980;7.660;2022-07-29T01:06:30;8.90;;;7.20;;
4359;SDS011;2193;47.980;7.660;2022-07-29T01:08:55;9.53;;;7.50;;
4359;SDS011;2193;47.980;7.660;2022-07-29T01:11:23;8.73;;;7.30;;
4359;SDS011;2193;47.980;7.660;2022-07-29T01:13:49;11.30;;;7.50;;
4359;SDS011;2193;47.980;7.660;2022-07-29T01:16:30;10.53;;;7.63;;
4359;SDS011;2193;47.980;7.660;2022-07-29T01:18:57;11.90;;;7.93;;
4359;SDS011;2193;47.980;7.660;2022-07-29T01:26:52;9.87;;;7.87;;
4359;SDS011;2193;47.980;7.660;2022-07-29T01:31:48;9.73;;;8.70;;
4359;SDS011;2193;47.980;7.660;2022-07-29T01:34:18;9.20;;;8.30;;
4359;SDS011;2193;47.980;7.660;2022-07-29T01:36:57;10.87;;;8.17;;
4359;SDS011;2193;47.980;7.660;2022-07-29T01:39:29;11.43;;;9.50;;
4359;SDS011;2193;47.980;7.660;2022-07-29T01:42:20;10.80;;;9.00;;
4359;SDS011;2193;47.980;7.660;2022-07-29T01:45:03;11.70;;;9.13;;
4359;SDS011;2193;47.980;7.660;2022-07-29T01:47:28;11.97;;;9.10;;
4359;SDS011;2193;47.980;7.660;2022-07-29T01:49:56;12.57;;;9.33;;
4359;SDS011;2193;47.980;7.660;2022-07-29T01:52:23;9.73;;;8.80;;
4359;SDS011;2193;47.980;7.660;2022-07-29T01:54:52;8.97;;;8.07;;
4359;SDS011;2193;47.980;7.660;2022-07-29T01:57:19;9.77;;;8.13;;
4359;SDS011;2193;47.980;7.660;2022-07-29T01:59:46;11.13;;;8.37;;
4359;SDS011;2193;47.980;7.660;2022-07-29T02:02:13;11.10;;;7.83;;
4359;SDS011;2193;47.980;7.660;2022-07-29T02:04:39;10.90;;;7.53;;
4359;SDS011;2193;47.980;7.660;2022-07-29T02:07:06;11.00;;;8.90;;
4359;SDS011;2193;47.980;7.660;2022-07-29T02:09:33;9.43;;;8.30;;
4359;SDS011;2193;47.980;7.660;2022-07-29T02:11:59;9.53;;;7.90;;
4359;SDS011;2193;47.980;7.660;2022-07-29T02:14:26;9.40;;;7.60;;
4359;SDS011;2193;47.980;7.660;2022-07-29T02:16:54;12.80;;;8.00;;
4359;SDS011;2193;47.980;7.660;2022-07-29T02:19:21;9.80;;;7.83;;
4359;SDS011;2193;47.980;7.660;2022-07-29T02:21:47;11.37;;;8.93;;
4359;SDS011;2193;47.980;7.660;2022-07-29T02:24:13;10.00;;;8.03;;
4359;SDS011;2193;47.980;7.660;2022-07-29T02:26:39;15.80;;;8.27;;
4359;SDS011;2193;47.980;7.660;2022-07-29T02:29:05;10.80;;;8.03;;
4359;SDS011;2193;47.980;7.660;2022-07-29T02:31:33;9.20;;;7.80;;
4359;SDS011;2193;47.980;7.660;2022-07-29T02:33:59;10.37;;;8.60;;
4359;SDS011;2193;47.980;7.660;2022-07-29T02:36:26;9.07;;;7.77;;
4359;SDS011;2193;47.980;7.660;2022-07-29T02:38:52;9.67;;;8.00;;
4359;SDS011;2193;47.980;7.660;2022-07-29T02:41:19;9.47;;;8.10;;
4359;SDS011;2193;47.980;7.660;2022-07-29T02:43:46;11.90;;;8.17;;
4359;SDS011;2193;47.980;7.660;2022-07-29T02:46:14;13.03;;;8.33;;
4359;SDS011;2193;47.980;7.660;2022-07-29T02:48:51;11.63;;;8.30;;
4359;SDS011;2193;47.980;7.660;2022-07-29T02:51:19;8.67;;;7.77;;
4359;SDS011;2193;47.980;7.660;2022-07-29T02:53:49;9.30;;;8.03;;
4359;SDS011;2193;47.980;7.660;2022-07-29T02:56:16;7.93;;;6.93;;
4359;SDS011;2193;47.980;7.660;2022-07-29T02:58:49;12.23;;;6.83;;
4359;SDS011;2193;47.980;7.660;2022-07-29T03:01:29;15.17;;;7.53;;
4359;SDS011;2193;47.980;7.660;2022-07-29T03:03:55;8.30;;;7.50;;
4359;SDS011;2193;47.980;7.660;2022-07-29T03:06:21;11.10;;;7.27;;
4359;SDS011;2193;47.980;7.660;2022-07-29T03:08:47;8.57;;;7.10;;
4359;SDS011;2193;47.980;7.660;2022-07-29T03:11:13;8.50;;;7.57;;
4359;SDS011;2193;47.980;7.660;2022-07-29T03:13:39;10.67;;;7.53;;
4359;SDS011;2193;47.980;7.660;2022-07-29T03:16:04;11.83;;;7.00;;
4359;SDS011;2193;47.980;7.660;2022-07-29T03:18:30;9.13;;;7.50;;
4359;SDS011;2193;47.980;7.660;2022-07-29T03:20:56;9.13;;;7.70;;
4359;SDS011;2193;47.980;7.660;2022-07-29T03:23:21;8.70;;;7.90;;
4359;SDS011;2193;47.980;7.660;2022-07-29T03:25:49;9.80;;;8.07;;
4359;SDS011;2193;47.980;7.660;2022-07-29T03:28:14;9.20;;;7.97;;
4359;SDS011;2193;47.980;7.660;2022-07-29T03:30:39;8.70;;;7.43;;
4359;SDS011;2193;47.980;7.660;2022-07-29T03:33:05;8.90;;;7.93;;
4359;SDS011;2193;47.980;7.660;2022-07-29T03:35:30;10.17;;;7.70;;
4359;SDS011;2193;47.980;7.660;2022-07-29T03:37:56;10.80;;;8.30;;
4359;SDS011;2193;47.980;7.660;2022-07-29T03:40:22;9.33;;;8.37;;
4359;SDS011;2193;47.980;7.660;2022-07-29T03:42:50;12.37;;;7.77;;
4359;SDS011;2193;47.980;7.660;2022-07-29T03:45:17;10.73;;;7.90;;
4359;SDS011;2193;47.980;7.660;2022-07-29T03:47:45;21.80;;;7.53;;
4359;SDS011;2193;47.980;7.660;2022-07-29T03:50:12;10.30;;;8.20;;
4359;SDS011;2193;47.980;7.660;2022-07-29T03:52:39;12.23;;;7.80;;
4359;SDS011;2193;47.980;7.660;2022-07-29T03:55:05;11.63;;;7.90;;
4359;SDS011;2193;47.980;7.660;2022-07-29T03:57:30;14.40;;;7.30;;
4359;SDS011;2193;47.980;7.660;2022-07-29T03:59:56;12.80;;;8.07;;
4359;SDS011;2193;47.980;7.660;2022-07-29T04:02:22;11.80;;;7.30;;
4359;SDS011;2193;47.980;7.660;2022-07-29T04:04:48;9.90;;;7.77;;
4359;SDS011;2193;47.980;7.660;2022-07-29T04:07:13;15.73;;;7.40;;
4359;SDS011;2193;47.980;7.660;2022-07-29T04:09:39;10.17;;;6.80;;
4359;SDS011;2193;47.980;7.660;2022-07-29T04:12:04;7.53;;;6.73;;
4359;SDS011;2193;47.980;7.660;2022-07-29T04:14:32;10.30;;;5.90;;
4359;SDS011;2193;47.980;7.660;2022-07-29T04:16:58;13.77;;;7.00;;
4359;SDS011;2193;47.980;7.660;2022-07-29T04:19:24;25.37;;;6.87;;
4359;SDS011;2193;47.980;7.660;2022-07-29T04:21:49;9.87;;;6.70;;
4359;SDS011;2193;47.980;7.660;2022-07-29T04:24:15;7.20;;;6.30;;
4359;SDS011;2193;47.980;7.660;2022-07-29T04:26:41;14.13;;;6.97;;
4359;SDS011;2193;47.980;7.660;2022-07-29T04:29:06;7.73;;;6.20;;
4359;SDS011;2193;47.980;7.660;2022-07-29T04:31:31;7.30;;;6.00;;
4359;SDS011;2193;47.980;7.660;2022-07-29T04:33:56;8.70;;;6.47;;
4359;SDS011;2193;47.980;7.660;2022-07-29T04:36:22;9.30;;;6.60;;
4359;SDS011;2193;47.980;7.660;2022-07-29T04:38:47;12.13;;;6.27;;
4359;SDS011;2193;47.980;7.660;2022-07-29T04:41:12;10.53;;;6.33;;
4359;SDS011;2193;47.980;7.660;2022-07-29T04:43:38;10.93;;;6.63;;
4359;SDS011;2193;47.980;7.660;2022-07-29T04:46:03;6.63;;;5.93;;
4359;SDS011;2193;47.980;7.660;2022-07-29T04:48:31;13.73;;;6.40;;
4359;SDS011;2193;47.980;7.660;2022-07-29T04:50:56;7.20;;;5.63;;
4359;SDS011;2193;47.980;7.660;2022-07-29T04:53:21;8.17;;;6.17;;
4359;SDS011;2193;47.980;7.660;2022-07-29T04:55:47;10.23;;;6.07;;
4359;SDS011;2193;47.980;7.660;2022-07-29T04:58:12;9.60;;;6.20;;
4359;SDS011;2193;47.980;7.660;2022-07-29T05:00:37;6.77;;;6.00;;
4359;SDS011;2193;47.980;7.660;2022-07-29T05:03:03;10.17;;;6.43;;
4359;SDS011;2193;47.980;7.660;2022-07-29T05:05:29;10.40;;;6.40;;
4359;SDS011;2193;47.980;7.660;2022-07-29T05:07:54;7.50;;;6.20;;
4359;SDS011;2193;47.980;7.660;2022-07-29T05:10:20;9.90;;;7.17;;
4359;SDS011;2193;47.980;7.660;2022-07-29T05:12:45;14.37;;;6.87;;
4359;SDS011;2193;47.980;7.660;2022-07-29T05:15:10;10.90;;;6.93;;
4359;SDS011;2193;47.980;7.660;2022-07-29T05:17:35;19.93;;;7.60;;
4359;SDS011;2193;47.980;7.660;2022-07-29T05:20:01;16.60;;;6.80;;
4359;SDS011;2193;47.980;7.660;2022-07-29T05:22:26;22.33;;;7.50;;
4359;SDS011;2193;47.980;7.660;2022-07-29T05:24:51;15.27;;;6.90;;
4359;SDS011;2193;47.980;7.660;2022-07-29T05:27:17;24.53;;;7.30;;
4359;SDS011;2193;47.980;7.660;2022-07-29T05:29:42;12.30;;;6.43;;
4359;SDS011;2193;47.980;7.660;2022-07-29T05:32:07;10.10;;;6.13;;
4359;SDS011;2193;47.980;7.660;2022-07-29T05:34:33;15.23;;;5.40;;
4359;SDS011;2193;47.980;7.660;2022-07-29T05:36:58;16.70;;;6.33;;
4359;SDS011;2193;47.980;7.660;2022-07-29T05:39:23;8.50;;;5.17;;
4359;SDS011;2193;47.980;7.660;2022-07-29T05:41:49;6.80;;;5.50;;
4359;SDS011;2193;47.980;7.660;2022-07-29T05:44:14;10.10;;;5.73;;
4359;SDS011;2193;47.980;7.660;2022-07-29T05:46:39;12.93;;;5.27;;
4359;SDS011;2193;47.980;7.660;2022-07-29T05:49:04;18.00;;;6.07;;
4359;SDS011;2193;47.980;7.660;2022-07-29T05:51:31;12.30;;;5.43;;
4359;SDS011;2193;47.980;7.660;2022-07-29T05:53:56;9.70;;;6.60;;
4359;SDS011;2193;47.980;7.660;2022-07-29T05:56:21;19.43;;;6.03;;
4359;SDS011;2193;47.980;7.660;2022-07-29T05:58:47;8.43;;;5.40;;
4359;SDS011;2193;47.980;7.660;2022-07-29T06:01:12;11.83;;;5.90;;
4359;SDS011;2193;47.980;7.660;2022-07-29T06:03:37;10.60;;;5.80;;
4359;SDS011;2193;47.980;7.660;2022-07-29T06:06:03;10.90;;;5.50;;
4359;SDS011;2193;47.980;7.660;2022-07-29T06:08:28;10.97;;;5.50;;
4359;SDS011;2193;47.980;7.660;2022-07-29T06:10:53;9.33;;;5.17;;
4359;SDS011;2193;47.980;7.660;2022-07-29T06:13:19;13.90;;;5.43;;
4359;SDS011;2193;47.980;7.660;2022-07-29T06:15:44;22.00;;;5.13;;
4359;SDS011;2193;47.980;7.660;2022-07-29T06:18:09;10.10;;;5.10;;
4359;SDS011;2193;47.980;7.660;2022-07-29T06:20:35;8.63;;;4.67;;
4359;SDS011;2193;47.980;7.660;2022-07-29T06:23:01;8.60;;;4.23;;
4359;SDS011;2193;47.980;7.660;2022-07-29T06:25:29;8.73;;;4.07;;
4359;SDS011;2193;47.980;7.660;2022-07-29T06:27:55;13.13;;;4.60;;
4359;SDS011;2193;47.980;7.660;2022-07-29T06:30:20;7.40;;;3.67;;
4359;SDS011;2193;47.980;7.660;2022-07-29T06:32:45;12.83;;;4.77;;
4359;SDS011;2193;47.980;7.660;2022-07-29T06:35:11;7.90;;;3.90;;
4359;SDS011;2193;47.980;7.660;2022-07-29T06:37:36;9.83;;;4.13;;
4359;SDS011;2193;47.980;7.660;2022-07-29T06:40:01;7.30;;;4.17;;
4359;SDS011;2193;47.980;7.660;2022-07-29T06:42:47;11.67;;;4.33;;
4359;SDS011;2193;47.980;7.660;2022-07-29T06:45:12;6.40;;;3.77;;
4359;SDS011;2193;47.980;7.660;2022-07-29T06:47:37;8.90;;;3.80;;
4359;SDS011;2193;47.980;7.660;2022-07-29T06:50:03;12.30;;;4.10;;
4359;SDS011;2193;47.980;7.660;2022-07-29T06:52:28;5.17;;;3.90;;
4359;SDS011;2193;47.980;7.660;2022-07-29T06:54:54;8.93;;;3.60;;
4359;SDS011;2193;47.980;7.660;2022-07-29T06:57:20;20.73;;;4.53;;
4359;SDS011;2193;47.980;7.660;2022-07-29T06:59:45;10.13;;;3.97;;
4359;SDS011;2193;47.980;7.660;2022-07-29T07:02:10;6.20;;;4.23;;
4359;SDS011;2193;47.980;7.660;2022-07-29T07:04:36;5.80;;;4.00;;
4359;SDS011;2193;47.980;7.660;2022-07-29T07:07:01;8.23;;;4.03;;
4359;SDS011;2193;47.980;7.660;2022-07-29T07:09:26;10.30;;;3.80;;
4359;SDS011;2193;47.980;7.660;2022-07-29T07:11:51;5.70;;;4.20;;
4359;SDS011;2193;47.980;7.660;2022-07-29T07:14:17;9.53;;;4.20;;
4359;SDS011;2193;47.980;7.660;2022-07-29T07:16:42;7.17;;;4.20;;
4359;SDS011;2193;47.980;7.660;2022-07-29T07:19:07;12.83;;;4.60;;
4359;SDS011;2193;47.980;7.660;2022-07-29T07:21:33;9.27;;;4.70;;
4359;SDS011;2193;47.980;7.660;2022-07-29T07:23:59;9.80;;;4.00;;
4359;SDS011;2193;47.980;7.660;2022-07-29T07:26:24;21.93;;;4.27;;
4359;SDS011;2193;47.980;7.660;2022-07-29T07:28:50;7.37;;;4.43;;
4359;SDS011;2193;47.980;7.660;2022-07-29T07:31:15;11.53;;;4.63;;
4359;SDS011;2193;47.980;7.660;2022-07-29T07:33:40;15.23;;;5.10;;
4359;SDS011;2193;47.980;7.660;2022-07-29T07:36:05;7.83;;;4.90;;
4359;SDS011;2193;47.980;7.660;2022-07-29T07:38:31;10.60;;;4.60;;
4359;SDS011;2193;47.980;7.660;2022-07-29T07:40:56;9.80;;;4.23;;
4359;SDS011;2193;47.980;7.660;2022-07-29T07:43:21;11.40;;;4.63;;
4359;SDS011;2193;47.980;7.660;2022-07-29T07:45:47;11.97;;;4.60;;
4359;SDS011;2193;47.980;7.660;2022-07-29T07:48:12;9.53;;;5.07;;
4359;SDS011;2193;47.980;7.660;2022-07-29T07:50:38;6.83;;;4.63;;
4359;SDS011;2193;47.980;7.660;2022-07-29T07:53:03;8.20;;;5.17;;
4359;SDS011;2193;47.980;7.660;2022-07-29T07:55:28;12.87;;;5.77;;
4359;SDS011;2193;47.980;7.660;2022-07-29T07:57:54;9.50;;;5.60;;
4359;SDS011;2193;47.980;7.660;2022-07-29T08:00:20;9.10;;;4.90;;
4359;SDS011;2193;47.980;7.660;2022-07-29T08:02:45;16.87;;;5.10;;
4359;SDS011;2193;47.980;7.660;2022-07-29T08:05:10;12.13;;;5.37;;
4359;SDS011;2193;47.980;7.660;2022-07-29T08:07:37;7.37;;;4.60;;
4359;SDS011;2193;47.980;7.660;2022-07-29T08:10:02;11.53;;;5.00;;
4359;SDS011;2193;47.980;7.660;2022-07-29T08:12:28;19.87;;;4.57;;
4359;SDS011;2193;47.980;7.660;2022-07-29T08:14:53;6.03;;;4.70;;
4359;SDS011;2193;47.980;7.660;2022-07-29T08:17:19;6.40;;;4.37;;
4359;SDS011;2193;47.980;7.660;2022-07-29T08:19:44;7.93;;;4.77;;
4359;SDS011;2193;47.980;7.660;2022-07-29T08:22:09;12.60;;;4.40;;
4359;SDS011;2193;47.980;7.660;2022-07-29T08:24:34;7.60;;;4.53;;
4359;SDS011;2193;47.980;7.660;2022-07-29T08:27:12;6.57;;;4.70;;
4359;SDS011;2193;47.980;7.660;2022-07-29T08:29:38;6.70;;;4.10;;
4359;SDS011;2193;47.980;7.660;2022-07-29T08:32:04;9.83;;;4.00;;
4359;SDS011;2193;47.980;7.660;2022-07-29T08:34:29;11.83;;;4.63;;
4359;SDS011;2193;47.980;7.660;2022-07-29T08:36:55;12.33;;;4.40;;
4359;SDS011;2193;47.980;7.660;2022-07-29T08:39:21;10.50;;;4.37;;
4359;SDS011;2193;47.980;7.660;2022-07-29T08:41:46;7.73;;;4.00;;
4359;SDS011;2193;47.980;7.660;2022-07-29T08:44:12;5.63;;;3.90;;
4359;SDS011;2193;47.980;7.660;2022-07-29T08:46:38;8.30;;;4.83;;
4359;SDS011;2193;47.980;7.660;2022-07-29T08:49:04;9.43;;;4.80;;
4359;SDS011;2193;47.980;7.660;2022-07-29T08:51:29;5.43;;;4.23;;
4359;SDS011;2193;47.980;7.660;2022-07-29T08:53:55;10.13;;;4.70;;
4359;SDS011;2193;47.980;7.660;2022-07-29T08:56:20;16.93;;;4.37;;
4359;SDS011;2193;47.980;7.660;2022-07-29T08:58:46;7.00;;;4.57;;
4359;SDS011;2193;47.980;7.660;2022-07-29T09:01:13;6.70;;;4.03;;
4359;SDS011;2193;47.980;7.660;2022-07-29T09:03:40;13.63;;;5.30;;
4359;SDS011;2193;47.980;7.660;2022-07-29T09:06:06;5.30;;;4.30;;
4359;SDS011;2193;47.980;7.660;2022-07-29T09:08:32;7.63;;;4.20;;
4359;SDS011;2193;47.980;7.660;2022-07-29T09:10:58;7.33;;;4.10;;
4359;SDS011;2193;47.980;7.660;2022-07-29T09:13:25;9.40;;;4.43;;
4359;SDS011;2193;47.980;7.660;2022-07-29T09:15:50;10.57;;;5.07;;
4359;SDS011;2193;47.980;7.660;2022-07-29T09:21:03;10.63;;;4.00;;
4359;SDS011;2193;47.980;7.660;2022-07-29T09:26:32;8.73;;;4.53;;
4359;SDS011;2193;47.980;7.660;2022-07-29T09:28:58;8.70;;;4.40;;
4359;SDS011;2193;47.980;7.660;2022-07-29T09:31:34;7.53;;;3.40;;
4359;SDS011;2193;47.980;7.660;2022-07-29T09:34:00;8.97;;;4.10;;
4359;SDS011;2193;47.980;7.660;2022-07-29T09:36:25;8.50;;;4.13;;
4359;SDS011;2193;47.980;7.660;2022-07-29T09:38:57;11.50;;;4.07;;
4359;SDS011;2193;47.980;7.660;2022-07-29T09:41:23;6.80;;;4.37;;
4359;SDS011;2193;47.980;7.660;2022-07-29T09:43:55;9.97;;;4.90;;
4359;SDS011;2193;47.980;7.660;2022-07-29T09:46:21;8.00;;;3.90;;
4359;SDS011;2193;47.980;7.660;2022-07-29T09:48:55;9.20;;;4.70;;
4359;SDS011;2193;47.980;7.660;2022-07-29T09:51:30;6.60;;;4.70;;
4359;SDS011;2193;47.980;7.660;2022-07-29T09:53:55;5.77;;;4.60;;
4359;SDS011;2193;47.980;7.660;2022-07-29T09:56:36;6.87;;;4.33;;
4359;SDS011;2193;47.980;7.660;2022-07-29T09:59:06;9.40;;;4.90;;
4359;SDS011;2193;47.980;7.660;2022-07-29T10:01:32;17.37;;;4.50;;
4359;SDS011;2193;47.980;7.660;2022-07-29T10:03:57;10.10;;;4.70;;
4359;SDS011;2193;47.980;7.660;2022-07-29T10:06:22;6.30;;;4.97;;
4359;SDS011;2193;47.980;7.660;2022-07-29T10:08:48;7.20;;;4.57;;
4359;SDS011;2193;47.980;7.660;2022-07-29T10:11:17;8.27;;;4.60;;
4359;SDS011;2193;47.980;7.660;2022-07-29T10:13:44;8.63;;;4.70;;
4359;SDS011;2193;47.980;7.660;2022-07-29T10:16:10;9.10;;;4.90;;
4359;SDS011;2193;47.980;7.660;2022-07-29T10:18:36;5.50;;;4.80;;
4359;SDS011;2193;47.980;7.660;2022-07-29T10:21:03;6.73;;;4.27;;
4359;SDS011;2193;47.980;7.660;2022-07-29T10:23:29;13.03;;;4.60;;
4359;SDS011;2193;47.980;7.660;2022-07-29T10:25:54;21.80;;;4.80;;
4359;SDS011;2193;47.980;7.660;2022-07-29T10:28:20;6.70;;;4.43;;
4359;SDS011;2193;47.980;7.660;2022-07-29T10:30:45;10.87;;;4.33;;
4359;SDS011;2193;47.980;7.660;2022-07-29T10:38:42;7.77;;;4.70;;
4359;SDS011;2193;47.980;7.660;2022-07-29T10:46:27;8.13;;;4.60;;
4359;SDS011;2193;47.980;7.660;2022-07-29T10:54:13;7.20;;;4.77;;
4359;SDS011;2193;47.980;7.660;2022-07-29T10:56:39;8.23;;;5.27;;
4359;SDS011;2193;47.980;7.660;2022-07-29T11:01:59;23.60;;;5.50;;
4359;SDS011;2193;47.980;7.660;2022-07-29T11:04:58;9.77;;;5.60;;
4359;SDS011;2193;47.980;7.660;2022-07-29T11:07:10;9.90;;;5.37;;
4359;SDS011;2193;47.980;7.660;2022-07-29T11:09:36;12.10;;;5.23;;
4359;SDS011;2193;47.980;7.660;2022-07-29T11:12:03;7.20;;;4.87;;
4359;SDS011;2193;47.980;7.660;2022-07-29T11:17:12;7.07;;;4.53;;
4359;SDS011;2193;47.980;7.660;2022-07-29T11:19:38;6.93;;;4.53;;
4359;SDS011;2193;47.980;7.660;2022-07-29T11:22:07;4.83;;;4.33;;
4359;SDS011;2193;47.980;7.660;2022-07-29T11:24:33;7.27;;;4.30;;
4359;SDS011;2193;47.980;7.660;2022-07-29T11:29:30;7.53;;;4.43;;
4359;SDS011;2193;47.980;7.660;2022-07-29T11:32:07;12.13;;;4.20;;
4359;SDS011;2193;47.980;7.660;2022-07-29T11:34:33;5.70;;;3.97;;
4359;SDS011;2193;47.980;7.660;2022-07-29T11:40:07;3.90;;;3.60;;
4359;SDS011;2193;47.980;7.660;2022-07-29T11:56:41;5.13;;;3.90;;
4359;SDS011;2193;47.980;7.660;2022-07-29T11:59:08;15.60;;;4.87;;
4359;SDS011;2193;47.980;7.660;2022-07-29T12:01:36;8.93;;;4.00;;
4359;SDS011;2193;47.980;7.660;2022-07-29T12:04:02;7.97;;;4.60;;
4359;SDS011;2193;47.980;7.660;2022-07-29T12:06:28;6.27;;;4.40;;
4359;SDS011;2193;47.980;7.660;2022-07-29T12:08:53;6.70;;;4.20;;
4359;SDS011;2193;47.980;7.660;2022-07-29T12:11:18;6.63;;;4.10;;
4359;SDS011;2193;47.980;7.660;2022-07-29T12:13:44;5.67;;;3.93;;
4359;SDS011;2193;47.980;7.660;2022-07-29T12:16:09;6.70;;;4.60;;
4359;SDS011;2193;47.980;7.660;2022-07-29T12:18:35;10.87;;;4.70;;
4359;SDS011;2193;47.980;7.660;2022-07-29T12:21:00;5.10;;;4.00;;
4359;SDS011;2193;47.980;7.660;2022-07-29T12:23:28;11.80;;;4.20;;
4359;SDS011;2193;47.980;7.660;2022-07-29T12:25:54;7.90;;;3.73;;
4359;SDS011;2193;47.980;7.660;2022-07-29T12:28:19;5.10;;;4.03;;
4359;SDS011;2193;47.980;7.660;2022-07-29T12:30:47;5.90;;;3.80;;
4359;SDS011;2193;47.980;7.660;2022-07-29T12:33:21;4.30;;;3.80;;
4359;SDS011;2193;47.980;7.660;2022-07-29T12:35:47;5.13;;;4.30;;
4359;SDS011;2193;47.980;7.660;2022-07-29T12:38:13;4.80;;;4.10;;
4359;SDS011;2193;47.980;7.660;2022-07-29T12:40:38;10.00;;;4.20;;
4359;SDS011;2193;47.980;7.660;2022-07-29T12:43:08;8.40;;;4.23;;
4359;SDS011;2193;47.980;7.660;2022-07-29T12:45:34;9.73;;;4.77;;
4359;SDS011;2193;47.980;7.660;2022-07-29T12:47:59;7.43;;;4.50;;
4359;SDS011;2193;47.980;7.660;2022-07-29T12:50:24;8.40;;;4.27;;
4359;SDS011;2193;47.980;7.660;2022-07-29T12:52:50;11.40;;;4.60;;
4359;SDS011;2193;47.980;7.660;2022-07-29T12:55:15;7.70;;;3.40;;
4359;SDS011;2193;47.980;7.660;2022-07-29T12:57:44;18.83;;;4.30;;
4359;SDS011;2193;47.980;7.660;2022-07-29T13:00:11;12.40;;;3.57;;
4359;SDS011;2193;47.980;7.660;2022-07-29T13:02:38;8.23;;;3.70;;
4359;SDS011;2193;47.980;7.660;2022-07-29T13:05:04;5.30;;;4.07;;
4359;SDS011;2193;47.980;7.660;2022-07-29T13:07:30;10.10;;;3.80;;
4359;SDS011;2193;47.980;7.660;2022-07-29T13:15:24;6.70;;;3.60;;
4359;SDS011;2193;47.980;7.660;2022-07-29T13:17:49;12.00;;;3.80;;
4359;SDS011;2193;47.980;7.660;2022-07-29T13:20:15;5.10;;;3.57;;
4359;SDS011;2193;47.980;7.660;2022-07-29T13:22:41;5.77;;;3.30;;
4359;SDS011;2193;47.980;7.660;2022-07-29T13:25:07;8.83;;;4.10;;
4359;SDS011;2193;47.980;7.660;2022-07-29T13:27:34;6.13;;;3.60;;
4359;SDS011;2193;47.980;7.660;2022-07-29T13:30:01;10.00;;;3.70;;
4359;SDS011;2193;47.980;7.660;2022-07-29T13:32:28;7.37;;;3.40;;
4359;SDS011;2193;47.980;7.660;2022-07-29T13:34:54;6.40;;;3.10;;
4359;SDS011;2193;47.980;7.660;2022-07-29T13:37:19;13.03;;;3.73;;
4359;SDS011;2193;47.980;7.660;2022-07-29T13:39:44;8.27;;;3.10;;
4359;SDS011;2193;47.980;7.660;2022-07-29T13:42:10;9.70;;;3.47;;
4359;SDS011;2193;47.980;7.660;2022-07-29T13:44:38;9.77;;;4.17;;
4359;SDS011;2193;47.980;7.660;2022-07-29T13:47:03;7.80;;;4.13;;
4359;SDS011;2193;47.980;7.660;2022-07-29T13:49:28;18.87;;;3.60;;
4359;SDS011;2193;47.980;7.660;2022-07-29T13:51:53;16.67;;;3.93;;
4359;SDS011;2193;47.980;7.660;2022-07-29T13:54:19;19.43;;;4.43;;
4359;SDS011;2193;47.980;7.660;2022-07-29T13:56:44;20.37;;;4.20;;
4359;SDS011;2193;47.980;7.660;2022-07-29T13:59:09;9.87;;;3.90;;
4359;SDS011;2193;47.980;7.660;2022-07-29T14:01:35;17.13;;;3.63;;
4359;SDS011;2193;47.980;7.660;2022-07-29T14:04:00;9.00;;;3.60;;
4359;SDS011;2193;47.980;7.660;2022-07-29T14:06:25;11.17;;;3.37;;
4359;SDS011;2193;47.980;7.660;2022-07-29T14:08:50;7.53;;;3.60;;
4359;SDS011;2193;47.980;7.660;2022-07-29T14:11:16;18.50;;;3.67;;
4359;SDS011;2193;47.980;7.660;2022-07-29T14:13:41;9.57;;;3.30;;
4359;SDS011;2193;47.980;7.660;2022-07-29T14:16:06;17.93;;;3.40;;
4359;SDS011;2193;47.980;7.660;2022-07-29T14:18:32;5.40;;;3.03;;
4359;SDS011;2193;47.980;7.660;2022-07-29T14:20:57;5.40;;;3.00;;
4359;SDS011;2193;47.980;7.660;2022-07-29T14:23:22;9.07;;;3.80;;
4359;SDS011;2193;47.980;7.660;2022-07-29T14:25:48;15.73;;;3.13;;
4359;SDS011;2193;47.980;7.660;2022-07-29T14:28:13;10.43;;;2.70;;
4359;SDS011;2193;47.980;7.660;2022-07-29T14:30:38;5.83;;;2.80;;
4359;SDS011;2193;47.980;7.660;2022-07-29T14:33:03;7.63;;;3.17;;
4359;SDS011;2193;47.980;7.660;2022-07-29T14:35:28;14.80;;;3.23;;
4359;SDS011;2193;47.980;7.660;2022-07-29T14:37:54;16.27;;;2.87;;
4359;SDS011;2193;47.980;7.660;2022-07-29T14:40:19;7.17;;;2.90;;
4359;SDS011;2193;47.980;7.660;2022-07-29T14:42:44;13.97;;;3.40;;
4359;SDS011;2193;47.980;7.660;2022-07-29T14:45:10;7.33;;;2.97;;
4359;SDS011;2193;47.980;7.660;2022-07-29T14:47:35;10.97;;;2.97;;
4359;SDS011;2193;47.980;7.660;2022-07-29T14:50:01;9.90;;;2.93;;
4359;SDS011;2193;47.980;7.660;2022-07-29T14:52:26;10.00;;;3.00;;
4359;SDS011;2193;47.980;7.660;2022-07-29T14:54:51;4.43;;;2.70;;
4359;SDS011;2193;47.980;7.660;2022-07-29T14:57:16;5.60;;;2.40;;
4359;SDS011;2193;47.980;7.660;2022-07-29T14:59:42;8.77;;;2.90;;
4359;SDS011;2193;47.980;7.660;2022-07-29T15:02:07;8.93;;;2.77;;
4359;SDS011;2193;47.980;7.660;2022-07-29T15:04:32;5.17;;;2.80;;
4359;SDS011;2193;47.980;7.660;2022-07-29T15:06:57;5.57;;;2.53;;
4359;SDS011;2193;47.980;7.660;2022-07-29T15:09:23;3.70;;;2.40;;
4359;SDS011;2193;47.980;7.660;2022-07-29T15:11:48;6.60;;;3.00;;
4359;SDS011;2193;47.980;7.660;2022-07-29T15:14:13;7.77;;;2.80;;
4359;SDS011;2193;47.980;7.660;2022-07-29T15:16:39;7.20;;;2.43;;
4359;SDS011;2193;47.980;7.660;2022-07-29T15:19:07;9.70;;;2.53;;
4359;SDS011;2193;47.980;7.660;2022-07-29T15:21:32;8.43;;;2.70;;
4359;SDS011;2193;47.980;7.660;2022-07-29T15:23:58;8.63;;;3.20;;
4359;SDS011;2193;47.980;7.660;2022-07-29T15:26:23;10.70;;;2.33;;
4359;SDS011;2193;47.980;7.660;2022-07-29T15:28:48;9.40;;;2.67;;
4359;SDS011;2193;47.980;7.660;2022-07-29T15:31:14;3.23;;;2.50;;
4359;SDS011;2193;47.980;7.660;2022-07-29T15:33:39;6.83;;;2.67;;
4359;SDS011;2193;47.980;7.660;2022-07-29T15:36:04;5.93;;;2.87;;
4359;SDS011;2193;47.980;7.660;2022-07-29T15:38:30;7.40;;;2.50;;
4359;SDS011;2193;47.980;7.660;2022-07-29T15:40:55;6.10;;;2.63;;
4359;SDS011;2193;47.980;7.660;2022-07-29T15:43:20;7.70;;;2.63;;
4359;SDS011;2193;47.980;7.660;2022-07-29T15:45:46;8.37;;;2.50;;
4359;SDS011;2193;47.980;7.660;2022-07-29T15:48:30;4.30;;;2.30;;
4359;SDS011;2193;47.980;7.660;2022-07-29T15:50:56;6.60;;;2.60;;
4359;SDS011;2193;47.980;7.660;2022-07-29T15:53:21;3.80;;;2.70;;
4359;SDS011;2193;47.980;7.660;2022-07-29T15:55:46;3.77;;;2.70;;
4359;SDS011;2193;47.980;7.660;2022-07-29T15:58:11;4.93;;;2.50;;
4359;SDS011;2193;47.980;7.660;2022-07-29T16:00:37;4.50;;;2.17;;
4359;SDS011;2193;47.980;7.660;2022-07-29T16:03:02;5.73;;;2.97;;
4359;SDS011;2193;47.980;7.660;2022-07-29T16:05:27;6.50;;;2.60;;